createdAt,value
2022-10-15T00:02:16.511Z,14.20
2022-10-15T00:07:18.704Z,14.30
2022-10-15T00:12:20.879Z,14.30
2022-10-15T00:17:23.303Z,14.30
2022-10-15T00:22:25.939Z,14.30
2022-10-15T00:27:28.348Z,14.20
2022-10-15T00:32:31.459Z,14.10
2022-10-15T00:37:33.877Z,14.10
2022-10-15T00:42:36.097Z,14.10
2022-10-15T00:47:42.764Z,14.00
2022-10-15T00:53:06.679Z,14.10
2022-10-15T00:58:15.351Z,14.10
2022-10-15T01:03:17.650Z,14.00
2022-10-15T01:08:20.147Z,14.10
2022-10-15T01:13:38.058Z,14.00
2022-10-15T01:18:49.386Z,14.00
2022-10-15T01:24:09.284Z,14.00
2022-10-15T01:29:34.210Z,14.00
2022-10-15T01:35:40.979Z,14.00
2022-10-15T01:40:55.692Z,14.00
2022-10-15T01:46:02.663Z,14.00
2022-10-15T01:51:14.812Z,14.00
2022-10-15T01:56:21.905Z,14.00
2022-10-15T02:01:24.417Z,13.90
2022-10-15T02:06:37.193Z,13.90
2022-10-15T02:12:09.773Z,13.80
2022-10-15T02:17:16.780Z,13.80
2022-10-15T02:22:38.562Z,13.70
2022-10-15T02:27:44.854Z,13.70
2022-10-15T02:32:52.036Z,13.70
2022-10-15T02:38:00.201Z,13.70
2022-10-15T02:43:06.818Z,13.70
2022-10-15T02:48:10.201Z,13.60
2022-10-15T02:53:12.350Z,13.60
2022-10-15T02:58:16.564Z,13.70
2022-10-15T03:03:20.037Z,13.60
2022-10-15T03:08:23.146Z,13.70
2022-10-15T03:13:25.570Z,13.70
2022-10-15T03:18:28.248Z,13.70
2022-10-15T03:23:30.689Z,13.70
2022-10-15T03:28:48.007Z,13.70
2022-10-15T03:34:03.961Z,13.70
2022-10-15T03:39:08.399Z,13.80
2022-10-15T03:44:13.155Z,13.80
2022-10-15T03:49:20.761Z,13.80
2022-10-15T03:54:23.047Z,13.80
2022-10-15T03:59:27.675Z,13.80
2022-10-15T04:04:35.679Z,13.80
2022-10-15T04:09:38.281Z,13.70
2022-10-15T04:14:59.141Z,13.70
2022-10-15T04:20:01.517Z,13.60
2022-10-15T04:25:05.457Z,13.60
2022-10-15T04:30:08.294Z,13.50
2022-10-15T04:35:13.362Z,13.40
2022-10-15T04:40:28.694Z,13.50
2022-10-15T04:45:31.135Z,13.50
2022-10-15T04:50:33.270Z,13.50
2022-10-15T04:55:59.546Z,13.40
2022-10-15T05:01:07.202Z,13.40
2022-10-15T05:06:23.805Z,13.40
2022-10-15T05:11:31.081Z,13.40
2022-10-15T05:16:34.245Z,13.30
2022-10-15T05:21:37.259Z,13.40
2022-10-15T05:26:46.898Z,13.40
2022-10-15T05:31:52.233Z,13.30
2022-10-15T05:36:58.518Z,13.30
2022-10-15T05:42:00.660Z,13.30
2022-10-15T05:47:21.840Z,13.20
2022-10-15T05:52:24.886Z,13.20
2022-10-15T05:57:53.496Z,13.30
2022-10-15T06:02:55.713Z,13.10
2022-10-15T06:07:59.784Z,13.10
2022-10-15T06:13:01.908Z,13.10
2022-10-15T06:18:04.268Z,13.00
2022-10-15T06:23:06.473Z,13.00
2022-10-15T06:28:09.623Z,13.00
2022-10-15T06:33:17.710Z,13.00
2022-10-15T06:38:19.801Z,13.00
2022-10-15T06:43:22.065Z,12.90
2022-10-15T06:48:24.202Z,12.90
2022-10-15T06:53:26.592Z,12.90
2022-10-15T06:58:28.915Z,12.90
2022-10-15T07:03:31.288Z,12.80
2022-10-15T07:08:33.862Z,12.90
2022-10-15T07:13:36.056Z,12.80
2022-10-15T07:18:39.299Z,12.90
2022-10-15T07:23:41.460Z,12.90
2022-10-15T07:28:43.873Z,12.90
2022-10-15T07:33:46.098Z,13.00
2022-10-15T07:38:48.282Z,13.00
2022-10-15T07:43:53.869Z,13.10
2022-10-15T07:48:56.336Z,13.10
2022-10-15T07:53:58.604Z,13.20
2022-10-15T07:59:00.722Z,13.30
2022-10-15T08:04:02.875Z,13.40
2022-10-15T08:09:05.738Z,13.50
2022-10-15T08:14:07.854Z,13.50
2022-10-15T08:19:10.005Z,13.70
2022-10-15T08:24:12.625Z,13.70
2022-10-15T08:29:14.887Z,13.70
2022-10-15T08:34:17.461Z,13.80
2022-10-15T08:39:19.599Z,13.90
2022-10-15T08:44:31.859Z,13.90
2022-10-15T08:50:21.440Z,13.90
2022-10-15T09:00:42.829Z,14.00
2022-10-15T09:06:01.880Z,14.10
2022-10-15T09:11:15.689Z,14.30
2022-10-15T09:16:24.401Z,14.60
2022-10-15T09:21:27.444Z,14.60
2022-10-15T09:26:38.677Z,14.50
2022-10-15T09:31:58.786Z,14.50
2022-10-15T09:37:51.941Z,14.60
2022-10-15T09:42:57.111Z,14.60
2022-10-15T09:48:01.017Z,14.70
2022-10-15T09:53:23.306Z,14.80
2022-10-15T09:58:38.832Z,14.80
2022-10-15T10:03:40.937Z,15.00
2022-10-15T10:08:59.401Z,15.00
2022-10-15T10:14:04.301Z,15.10
2022-10-15T10:19:15.318Z,15.30
2022-10-15T10:24:32.130Z,15.50
2022-10-15T10:29:40.228Z,15.80
2022-10-15T10:34:48.729Z,16.00
2022-10-15T10:39:59.390Z,16.10
2022-10-15T10:45:21.211Z,16.10
2022-10-15T10:50:32.651Z,16.20
2022-10-15T10:55:39.306Z,16.20
2022-10-15T11:00:46.432Z,16.50
2022-10-15T11:05:56.055Z,17.00
2022-10-15T11:11:25.259Z,17.10
2022-10-15T11:16:37.673Z,17.00
2022-10-15T11:21:51.476Z,16.60
2022-10-15T11:27:17.297Z,16.30
2022-10-15T11:32:47.829Z,16.20
2022-10-15T11:38:18.390Z,16.30
2022-10-15T11:43:55.491Z,16.40
2022-10-15T11:49:06.854Z,16.30
2022-10-15T11:54:15.789Z,16.40
2022-10-15T11:59:23.821Z,16.40
2022-10-15T12:04:48.590Z,16.80
2022-10-15T12:09:55.346Z,16.70
2022-10-15T12:15:01.638Z,17.00
2022-10-15T12:20:15.499Z,17.50
2022-10-15T12:25:36.141Z,17.80
2022-10-15T12:30:40.351Z,17.90
2022-10-15T12:35:42.586Z,17.50
2022-10-15T12:40:45.921Z,17.10
2022-10-15T12:46:00.301Z,16.90
2022-10-15T12:51:21.965Z,16.80
2022-10-15T12:56:25.952Z,16.80
2022-10-15T13:01:30.500Z,16.50
2022-10-15T13:06:38.411Z,16.30
2022-10-15T13:16:54.379Z,16.00
2022-10-15T13:21:59.496Z,16.20
2022-10-15T13:27:05.624Z,16.50
2022-10-15T13:32:14.039Z,16.70
2022-10-15T13:37:24.606Z,16.80
2022-10-15T13:42:27.582Z,16.70
2022-10-15T13:47:35.385Z,16.70
2022-10-15T13:52:48.216Z,16.90
2022-10-15T13:57:52.037Z,17.40
2022-10-15T14:03:16.130Z,17.30
2022-10-15T14:08:28.588Z,17.50
2022-10-15T14:13:30.675Z,17.30
2022-10-15T14:18:45.227Z,17.40
2022-10-15T14:23:50.551Z,17.30
2022-10-15T14:28:53.109Z,17.10
2022-10-15T14:33:55.306Z,16.60
2022-10-15T14:39:27.672Z,16.10
2022-10-15T14:44:42.871Z,15.80
2022-10-15T14:49:45.409Z,15.60
2022-10-15T14:55:13.952Z,15.40
2022-10-15T15:00:16.204Z,15.40
2022-10-15T15:05:22.202Z,15.50
2022-10-15T15:10:26.609Z,15.80
2022-10-15T15:15:28.778Z,16.00
2022-10-15T15:20:31.108Z,16.10
2022-10-15T15:25:37.090Z,16.60
2022-10-15T15:30:42.419Z,16.30
2022-10-15T15:35:51.187Z,16.10
2022-10-15T15:40:53.404Z,15.90
2022-10-15T15:45:55.783Z,16.00
2022-10-15T15:51:20.915Z,15.80
2022-10-15T15:56:23.801Z,15.80
2022-10-15T16:01:26.014Z,15.70
2022-10-15T16:06:28.164Z,15.80
2022-10-15T16:11:30.379Z,15.80
2022-10-15T16:16:32.595Z,15.60
2022-10-15T16:21:36.117Z,15.70
2022-10-15T16:26:38.308Z,16.20
2022-10-15T16:31:40.729Z,15.90
2022-10-15T16:36:42.829Z,15.60
2022-10-15T16:41:44.986Z,15.40
2022-10-15T16:46:47.440Z,15.30
2022-10-15T16:51:49.600Z,15.20
2022-10-15T16:56:53.157Z,15.20
2022-10-15T17:01:55.717Z,15.20
2022-10-15T17:06:57.966Z,15.10
2022-10-15T17:12:00.144Z,15.00
2022-10-15T17:17:02.466Z,14.80
2022-10-15T17:22:04.640Z,14.50
2022-10-15T17:27:06.798Z,14.10
2022-10-15T17:32:08.947Z,13.90
2022-10-15T17:37:11.309Z,13.90
2022-10-15T17:42:15.743Z,13.90
2022-10-15T17:47:17.860Z,13.80
2022-10-15T17:52:20.095Z,13.70
2022-10-15T17:57:22.313Z,13.70
2022-10-15T18:02:24.576Z,13.60
2022-10-15T18:07:27.783Z,13.60
2022-10-15T18:12:30.192Z,13.50
2022-10-15T18:17:32.427Z,13.50
2022-10-15T18:22:35.060Z,13.20
2022-10-15T18:27:37.239Z,13.40
2022-10-15T18:32:39.753Z,13.40
2022-10-15T18:37:41.929Z,13.40
2022-10-15T18:42:47.664Z,13.30
2022-10-15T18:47:55.111Z,13.40
2022-10-15T18:52:57.559Z,13.40
2022-10-15T18:58:01.904Z,13.40
2022-10-15T19:03:04.953Z,13.40
2022-10-15T19:08:07.239Z,13.50
2022-10-15T19:13:09.479Z,13.40
2022-10-15T19:18:11.748Z,13.50
2022-10-15T19:23:13.924Z,13.40
2022-10-15T19:28:16.214Z,13.40
2022-10-15T19:33:20.122Z,13.40
2022-10-15T19:38:23.333Z,13.30
2022-10-15T19:43:25.641Z,13.30
2022-10-15T19:48:27.821Z,13.30
2022-10-15T19:53:30.724Z,13.20
2022-10-15T19:58:33.566Z,13.30
2022-10-15T20:08:43.150Z,13.30
2022-10-15T20:13:45.672Z,13.30
2022-10-15T20:18:47.809Z,13.30
2022-10-15T20:23:49.963Z,13.30
2022-10-15T20:28:53.560Z,13.30
2022-10-15T20:33:55.989Z,13.30
2022-10-15T20:39:00.773Z,13.30
2022-10-15T20:44:03.235Z,13.30
2022-10-15T20:49:09.355Z,13.20
2022-10-15T20:54:12.991Z,13.10
2022-10-15T20:59:15.202Z,13.10
2022-10-15T21:04:19.429Z,13.00
2022-10-15T21:09:21.620Z,13.00
2022-10-15T21:14:24.261Z,12.90
2022-10-15T21:19:26.470Z,12.90
2022-10-15T21:24:30.045Z,12.90
2022-10-15T21:29:32.239Z,12.90
2022-10-15T21:34:34.397Z,12.80
2022-10-15T21:39:36.633Z,12.90
2022-10-15T21:44:38.987Z,12.80
2022-10-15T21:49:41.828Z,12.90
2022-10-15T21:54:44.001Z,12.90
2022-10-15T21:59:46.205Z,12.90
2022-10-15T22:04:48.370Z,12.90
2022-10-15T22:09:50.495Z,12.90
2022-10-15T22:14:52.640Z,12.90
2022-10-15T22:19:54.761Z,13.00
2022-10-15T22:24:59.616Z,13.00
2022-10-15T22:30:02.235Z,13.00
2022-10-15T22:35:04.559Z,13.00
2022-10-15T22:40:07.067Z,13.10
2022-10-15T22:45:09.618Z,13.10
2022-10-15T22:50:11.877Z,13.20
2022-10-15T22:55:14.030Z,13.20
2022-10-15T23:00:16.306Z,13.20
2022-10-15T23:05:18.463Z,13.20
2022-10-15T23:10:20.724Z,13.20
2022-10-15T23:15:22.933Z,13.20
2022-10-15T23:20:25.140Z,13.20
2022-10-15T23:25:27.467Z,13.10
2022-10-15T23:30:29.626Z,13.10
2022-10-15T23:35:31.777Z,13.00
2022-10-15T23:40:34.077Z,13.00
2022-10-15T23:45:38.114Z,12.90
2022-10-15T23:50:42.990Z,12.80
2022-10-15T23:55:45.623Z,12.80
